Terminal Aerodrome Forecast
Issued by NWS

Home | Current Version | Previous Version | Text Only | Print | Product List | Glossary On
Versions: 1 2 3 4 5 6 7 8 9 10 11 12 13 14
000
FTUS42 TJSJ 052300
TAFJBQ
TAF
TJBQ 052340Z 0600/0624 10012G20KT P6SM FEW030
     FM060300 11008KT P6SM FEW030
     FM061400 08018G26KT P6SM FEW025
     FM062300 09008KT P6SM SCT025
      AMD NOT SKED 0602/0611=

USA.gov is the U.S. government's official web portal to all federal, state and local government web resources and services.